createdAt,value
2023-03-24T00:00:33.328Z,11.90
2023-03-24T00:03:02.659Z,12.00
2023-03-24T00:05:30.532Z,12.00
2023-03-24T00:08:02.393Z,12.00
2023-03-24T00:10:34.360Z,12.00
2023-03-24T00:13:01.712Z,12.10
2023-03-24T00:15:29.105Z,12.10
2023-03-24T00:17:58.075Z,12.20
2023-03-24T00:20:26.329Z,12.20
2023-03-24T00:22:58.546Z,12.30
2023-03-24T00:25:29.546Z,12.30
2023-03-24T00:27:57.898Z,12.30
2023-03-24T00:30:26.287Z,12.30
2023-03-24T00:32:53.956Z,12.30
2023-03-24T00:35:21.902Z,12.30
2023-03-24T00:37:51.892Z,12.30
2023-03-24T00:40:21.602Z,12.20
2023-03-24T00:42:50.117Z,12.20
2023-03-24T00:45:22.937Z,12.10
2023-03-24T00:47:53.983Z,12.10
2023-03-24T00:50:26.651Z,12.10
2023-03-24T00:52:55.662Z,12.10
2023-03-24T00:55:23.022Z,11.90
2023-03-24T00:57:50.708Z,11.90
2023-03-24T01:00:25.235Z,11.90
2023-03-24T01:02:57.942Z,11.90
2023-03-24T01:05:28.699Z,12.10
2023-03-24T01:08:03.119Z,12.10
2023-03-24T01:10:35.896Z,12.20
2023-03-24T01:13:03.973Z,12.20
2023-03-24T01:15:34.379Z,12.20
2023-03-24T01:18:02.358Z,12.20
2023-03-24T01:20:35.485Z,12.30
2023-03-24T01:23:05.778Z,12.20
2023-03-24T01:25:36.272Z,12.20
2023-03-24T01:28:03.930Z,12.10
2023-03-24T01:30:31.752Z,11.90
2023-03-24T01:32:58.691Z,11.70
2023-03-24T01:35:29.411Z,11.80
2023-03-24T01:37:57.238Z,11.80
2023-03-24T01:40:29.153Z,11.80
2023-03-24T01:42:56.938Z,11.80
2023-03-24T01:45:41.680Z,11.80
2023-03-24T01:48:46.214Z,11.80
2023-03-24T01:51:44.562Z,11.80
2023-03-24T01:54:24.248Z,11.80
2023-03-24T01:56:59.209Z,11.80
2023-03-24T01:59:31.751Z,11.90
2023-03-24T02:02:03.197Z,12.00
2023-03-24T02:04:38.698Z,12.10
2023-03-24T02:07:16.166Z,11.70
2023-03-24T02:09:43.081Z,11.70
2023-03-24T02:12:10.231Z,11.80
2023-03-24T02:14:37.407Z,11.80
2023-03-24T02:17:42.241Z,11.80
2023-03-24T02:20:21.397Z,11.80
2023-03-24T02:23:18.970Z,11.90
2023-03-24T02:26:29.216Z,12.00
2023-03-24T02:29:23.341Z,11.90
2023-03-24T02:32:27.072Z,11.90
2023-03-24T02:36:19.546Z,12.00
2023-03-24T02:39:29.189Z,11.80
2023-03-24T02:42:20.811Z,11.90
2023-03-24T02:45:24.340Z,11.90
2023-03-24T02:48:14.846Z,11.90
2023-03-24T02:51:17.587Z,12.00
2023-03-24T02:54:27.841Z,12.00
2023-03-24T02:57:02.267Z,12.10
2023-03-24T02:59:44.352Z,12.00
2023-03-24T03:02:23.104Z,12.00
2023-03-24T03:05:00.868Z,12.10
2023-03-24T03:07:33.475Z,12.00
2023-03-24T03:10:08.616Z,12.00
2023-03-24T03:12:38.782Z,11.90
2023-03-24T03:15:12.921Z,12.00
2023-03-24T03:17:48.925Z,12.00
2023-03-24T03:20:24.243Z,12.00
2023-03-24T03:23:02.225Z,12.00
2023-03-24T03:25:36.987Z,12.00
2023-03-24T03:28:07.073Z,12.00
2023-03-24T03:30:53.597Z,11.90
2023-03-24T03:33:25.998Z,11.90
2023-03-24T03:36:04.335Z,11.80
2023-03-24T03:39:00.835Z,11.90
2023-03-24T03:41:28.064Z,12.00
2023-03-24T03:43:55.298Z,12.00
2023-03-24T03:46:22.505Z,12.00
2023-03-24T03:48:49.539Z,12.00
2023-03-24T03:51:16.760Z,12.00
2023-03-24T03:54:06.840Z,12.00
2023-03-24T03:56:37.053Z,12.00
2023-03-24T03:59:06.306Z,12.00
2023-03-24T04:01:37.250Z,12.00
2023-03-24T04:04:26.714Z,12.00
2023-03-24T04:07:24.237Z,12.00
2023-03-24T04:10:16.046Z,12.00
2023-03-24T04:13:02.781Z,11.90
2023-03-24T04:15:46.958Z,11.80
2023-03-24T04:18:44.837Z,11.70
2023-03-24T04:22:09.652Z,11.70
2023-03-24T04:25:15.477Z,11.60
2023-03-24T04:28:16.269Z,11.60
2023-03-24T04:31:01.238Z,11.40
2023-03-24T04:33:43.815Z,11.30
2023-03-24T04:36:22.673Z,11.30
2023-03-24T04:38:57.094Z,11.30
2023-03-24T04:41:27.218Z,11.20
2023-03-24T04:43:57.146Z,11.10
2023-03-24T04:46:24.767Z,11.00
2023-03-24T04:48:51.675Z,11.10
2023-03-24T04:51:21.112Z,11.10
2023-03-24T04:53:48.791Z,11.10
2023-03-24T04:56:30.535Z,11.10
2023-03-24T04:58:58.719Z,11.10
2023-03-24T05:01:30.406Z,11.10
2023-03-24T05:03:58.641Z,11.20
2023-03-24T05:06:26.606Z,11.30
2023-03-24T05:08:53.492Z,11.20
2023-03-24T05:11:21.103Z,11.30
2023-03-24T05:13:47.993Z,11.30
2023-03-24T05:16:15.923Z,11.20
2023-03-24T05:18:42.988Z,11.30
2023-03-24T05:21:10.048Z,11.30
2023-03-24T05:23:36.991Z,11.40
2023-03-24T05:26:05.118Z,11.40
2023-03-24T05:28:32.057Z,11.40
2023-03-24T05:31:00.211Z,11.40
2023-03-24T05:33:27.230Z,11.40
2023-03-24T05:35:54.188Z,11.60
2023-03-24T05:38:21.064Z,11.60
2023-03-24T05:40:47.923Z,11.50
2023-03-24T05:43:15.399Z,11.60
2023-03-24T05:45:42.217Z,11.60
2023-03-24T05:48:09.260Z,11.70
2023-03-24T05:50:36.228Z,11.60
2023-03-24T05:53:03.728Z,11.70
2023-03-24T05:55:30.955Z,11.80
2023-03-24T05:58:00.283Z,11.80
2023-03-24T06:00:27.739Z,11.90
2023-03-24T06:02:54.653Z,11.90
2023-03-24T06:05:21.615Z,12.00
2023-03-24T06:07:48.568Z,12.00
2023-03-24T06:10:18.160Z,11.90
2023-03-24T06:12:46.109Z,11.90
2023-03-24T06:15:17.413Z,11.90
2023-03-24T06:17:45.795Z,12.00
2023-03-24T06:20:16.167Z,12.10
2023-03-24T06:22:47.385Z,12.00
2023-03-24T06:25:17.869Z,12.20
2023-03-24T06:27:48.730Z,12.10
2023-03-24T06:30:17.755Z,12.20
2023-03-24T06:32:46.721Z,12.10
2023-03-24T06:35:17.445Z,12.10
2023-03-24T06:37:45.044Z,12.00
2023-03-24T06:40:15.776Z,11.90
2023-03-24T06:42:42.709Z,11.90
2023-03-24T06:45:11.079Z,12.00
2023-03-24T06:47:38.262Z,12.00
2023-03-24T06:50:07.048Z,12.00
2023-03-24T06:52:35.593Z,12.00
2023-03-24T06:55:03.339Z,12.00
2023-03-24T06:57:30.334Z,12.00
2023-03-24T06:59:57.227Z,12.10
2023-03-24T07:02:24.153Z,12.10
2023-03-24T07:04:54.026Z,12.00
2023-03-24T07:07:53.394Z,12.10
2023-03-24T07:10:10.342Z,12.10
2023-03-24T07:12:37.188Z,12.10
2023-03-24T07:15:04.558Z,12.10
2023-03-24T07:17:31.561Z,12.20
2023-03-24T07:19:58.692Z,12.10
2023-03-24T07:22:25.686Z,12.20
2023-03-24T07:24:54.069Z,12.30
2023-03-24T07:27:21.193Z,12.20
2023-03-24T07:29:48.061Z,12.30
2023-03-24T07:32:15.280Z,12.20
2023-03-24T07:34:43.954Z,12.30
2023-03-24T07:37:11.047Z,12.40
2023-03-24T07:39:37.943Z,12.50
2023-03-24T07:42:04.870Z,12.40
2023-03-24T07:44:31.679Z,12.40
2023-03-24T07:46:58.574Z,12.40
2023-03-24T07:49:26.015Z,12.40
2023-03-24T07:51:52.834Z,12.50
2023-03-24T07:54:19.784Z,12.60
2023-03-24T07:56:46.757Z,12.50
2023-03-24T07:59:13.758Z,12.60
2023-03-24T08:01:40.676Z,12.60
2023-03-24T08:04:07.795Z,12.70
2023-03-24T08:06:35.173Z,12.60
2023-03-24T08:09:02.187Z,12.70
2023-03-24T08:11:29.020Z,12.80
2023-03-24T08:13:56.114Z,12.80
2023-03-24T08:16:23.040Z,12.90
2023-03-24T08:18:50.738Z,12.90
2023-03-24T08:21:17.695Z,13.00
2023-03-24T08:23:44.747Z,12.90
2023-03-24T08:26:11.725Z,12.90
2023-03-24T08:28:38.712Z,12.80
2023-03-24T08:31:06.095Z,12.70
2023-03-24T08:33:33.592Z,12.60
2023-03-24T08:36:00.989Z,12.60
2023-03-24T08:38:31.713Z,12.60
2023-03-24T08:41:02.123Z,12.70
2023-03-24T08:43:30.715Z,12.90
2023-03-24T08:45:58.894Z,12.90
2023-03-24T08:48:26.665Z,12.90
2023-03-24T08:50:53.581Z,12.80
2023-03-24T08:53:20.874Z,12.80
2023-03-24T08:55:48.432Z,12.80
2023-03-24T08:58:20.477Z,12.80
2023-03-24T09:00:48.760Z,12.70
2023-03-24T09:03:22.494Z,12.70
2023-03-24T09:05:50.308Z,12.80
2023-03-24T09:08:19.121Z,12.80
2023-03-24T09:10:49.668Z,12.90
2023-03-24T09:13:17.613Z,12.90
2023-03-24T09:15:54.033Z,13.00
2023-03-24T09:18:22.134Z,13.10
2023-03-24T09:20:50.157Z,13.20
2023-03-24T09:23:17.589Z,13.30
2023-03-24T09:25:45.124Z,13.30
2023-03-24T09:28:13.746Z,13.30
2023-03-24T09:30:40.834Z,13.40
2023-03-24T09:33:07.750Z,13.50
2023-03-24T09:35:34.640Z,13.30
2023-03-24T09:38:01.495Z,13.40
2023-03-24T09:40:36.730Z,13.30
2023-03-24T09:43:07.131Z,13.20
2023-03-24T09:45:57.517Z,13.20
2023-03-24T09:48:33.341Z,13.10
2023-03-24T09:51:28.912Z,13.00
2023-03-24T09:54:11.275Z,12.90
2023-03-24T09:56:40.014Z,12.80
2023-03-24T09:59:08.094Z,12.90
2023-03-24T10:01:38.491Z,12.80
2023-03-24T10:04:17.842Z,13.10
2023-03-24T10:06:45.892Z,13.20
2023-03-24T10:09:29.008Z,13.00
2023-03-24T10:12:04.613Z,13.00
2023-03-24T10:15:02.383Z,13.10
2023-03-24T10:17:47.377Z,13.20
2023-03-24T10:20:31.475Z,13.10
2023-03-24T10:23:46.506Z,13.10
2023-03-24T10:27:13.459Z,13.10
2023-03-24T10:29:41.527Z,13.20
2023-03-24T10:32:22.620Z,13.20
2023-03-24T10:34:58.749Z,13.20
2023-03-24T10:37:29.306Z,13.20
2023-03-24T10:39:56.636Z,13.10
2023-03-24T10:42:31.825Z,13.20
2023-03-24T10:44:59.505Z,13.10
2023-03-24T10:47:32.865Z,13.10
2023-03-24T10:50:12.184Z,13.20
2023-03-24T10:52:47.303Z,13.20
2023-03-24T10:55:20.284Z,13.20
2023-03-24T10:57:51.568Z,13.30
2023-03-24T11:00:31.854Z,13.30
2023-03-24T11:03:06.024Z,13.10
2023-03-24T11:05:38.923Z,13.30
2023-03-24T11:08:28.607Z,13.20
2023-03-24T11:10:56.291Z,13.30
2023-03-24T11:13:22.981Z,13.50
2023-03-24T11:15:57.218Z,13.60
2023-03-24T11:18:24.146Z,13.80
2023-03-24T11:21:06.878Z,13.90
2023-03-24T11:23:40.056Z,14.00
2023-03-24T11:26:17.919Z,14.10
2023-03-24T11:29:01.358Z,14.00
2023-03-24T11:31:31.598Z,14.10
2023-03-24T11:34:20.667Z,14.10
2023-03-24T11:36:52.555Z,14.20
2023-03-24T11:39:22.717Z,14.30
2023-03-24T11:42:12.345Z,14.40
2023-03-24T11:44:39.103Z,14.30
2023-03-24T11:47:21.685Z,14.50
2023-03-24T11:50:10.570Z,14.60
2023-03-24T11:53:11.436Z,14.90
2023-03-24T11:56:02.326Z,15.20
2023-03-24T11:58:37.841Z,15.40
2023-03-24T12:01:23.093Z,15.80
2023-03-24T12:04:16.739Z,16.10
2023-03-24T12:07:07.525Z,15.90
2023-03-24T12:09:55.099Z,16.10
2023-03-24T12:12:51.740Z,16.30
2023-03-24T12:15:28.513Z,16.70
2023-03-24T12:18:20.289Z,16.90
2023-03-24T12:21:19.746Z,17.00
2023-03-24T12:24:02.185Z,17.20
2023-03-24T12:26:30.968Z,17.50
2023-03-24T12:29:09.978Z,17.40
2023-03-24T12:32:20.636Z,17.40
2023-03-24T12:35:23.966Z,17.30
2023-03-24T12:38:06.606Z,17.60
2023-03-24T12:40:46.498Z,17.50
2023-03-24T12:43:47.437Z,17.30
2023-03-24T12:46:54.077Z,17.10
2023-03-24T12:49:47.177Z,17.10
2023-03-24T12:53:05.029Z,16.90
2023-03-24T12:55:48.531Z,16.80
2023-03-24T12:58:36.557Z,16.80
2023-03-24T13:01:34.114Z,16.60
2023-03-24T13:04:01.182Z,16.30
2023-03-24T13:06:36.016Z,16.30
2023-03-24T13:09:29.960Z,16.30
2023-03-24T13:12:03.222Z,16.40
2023-03-24T13:14:53.312Z,16.20
2023-03-24T13:17:27.880Z,16.30
2023-03-24T13:19:55.965Z,16.60
2023-03-24T13:22:24.935Z,16.70
2023-03-24T13:24:54.529Z,16.70
2023-03-24T13:27:28.461Z,16.70
2023-03-24T13:30:44.859Z,16.80
2023-03-24T13:33:18.136Z,16.70
2023-03-24T13:36:06.917Z,16.60
2023-03-24T13:38:46.784Z,16.30
2023-03-24T13:41:19.946Z,16.10
2023-03-24T13:43:51.118Z,15.70
2023-03-24T13:46:18.887Z,15.60
2023-03-24T13:48:52.109Z,15.20
2023-03-24T13:51:31.674Z,15.20
2023-03-24T13:54:07.398Z,15.10
2023-03-24T13:56:36.391Z,15.20
2023-03-24T13:59:03.287Z,15.40
2023-03-24T14:01:38.736Z,15.40
2023-03-24T14:04:27.098Z,15.40
2023-03-24T14:06:59.385Z,15.40
2023-03-24T14:09:32.887Z,15.30
2023-03-24T14:12:02.392Z,15.30
2023-03-24T14:14:30.479Z,15.50
2023-03-24T14:17:12.101Z,15.50
2023-03-24T14:19:46.005Z,15.60
2023-03-24T14:22:26.991Z,15.60
2023-03-24T14:25:18.165Z,15.50
2023-03-24T14:27:49.298Z,15.50
2023-03-24T14:30:28.256Z,15.60
2023-03-24T14:33:00.717Z,16.00
2023-03-24T14:35:32.697Z,16.40
2023-03-24T14:38:16.423Z,16.30
2023-03-24T14:40:56.415Z,16.00
2023-03-24T14:43:53.475Z,15.70
2023-03-24T14:46:20.350Z,15.70
2023-03-24T14:49:06.460Z,15.50
2023-03-24T14:51:48.373Z,15.30
2023-03-24T14:54:46.281Z,15.20
2023-03-24T14:57:39.495Z,15.20
2023-03-24T15:00:26.011Z,15.30
2023-03-24T15:02:59.660Z,15.20
2023-03-24T15:05:30.456Z,15.30
2023-03-24T15:08:12.009Z,15.40
2023-03-24T15:11:07.202Z,15.20
2023-03-24T15:13:54.344Z,15.40
2023-03-24T15:16:31.528Z,15.40
2023-03-24T15:19:02.436Z,15.20
2023-03-24T15:21:35.701Z,15.20
2023-03-24T15:24:25.265Z,15.30
2023-03-24T15:27:09.038Z,15.20
2023-03-24T15:29:39.189Z,15.00
2023-03-24T15:32:08.947Z,14.60
2023-03-24T15:34:47.616Z,14.60
2023-03-24T15:37:24.892Z,14.60
2023-03-24T15:40:01.754Z,14.40
2023-03-24T15:42:44.221Z,14.30
2023-03-24T15:45:24.786Z,14.30
2023-03-24T15:47:53.781Z,14.20
2023-03-24T15:50:35.742Z,14.10
2023-03-24T15:53:07.699Z,14.00
2023-03-24T15:55:36.973Z,14.00
2023-03-24T15:58:22.909Z,14.00
2023-03-24T16:00:55.229Z,14.00
2023-03-24T16:03:26.303Z,13.90
2023-03-24T16:05:56.397Z,13.90
2023-03-24T16:08:41.460Z,13.90
2023-03-24T16:11:14.110Z,13.80
2023-03-24T16:13:44.798Z,13.80
2023-03-24T16:16:14.471Z,13.50
2023-03-24T16:18:46.986Z,13.60
2023-03-24T16:21:23.974Z,13.60
2023-03-24T16:23:53.895Z,13.60
2023-03-24T16:26:25.901Z,13.30
2023-03-24T16:28:54.539Z,13.30
2023-03-24T16:31:27.561Z,13.20
2023-03-24T16:33:57.298Z,13.00
2023-03-24T16:36:28.000Z,12.90
2023-03-24T16:38:58.393Z,12.70
2023-03-24T16:41:26.105Z,12.60
2023-03-24T16:43:56.449Z,12.70
2023-03-24T16:48:54.093Z,12.30
2023-03-24T16:51:20.932Z,12.30
2023-03-24T16:53:48.101Z,12.40
2023-03-24T16:56:18.395Z,12.30
2023-03-24T16:58:48.026Z,12.20
2023-03-24T17:01:38.867Z,12.30
2023-03-24T17:04:09.744Z,12.00
2023-03-24T17:06:49.120Z,12.10
2023-03-24T17:09:16.587Z,12.00
2023-03-24T17:11:52.022Z,12.10
2023-03-24T17:14:19.276Z,11.80
2023-03-24T17:16:49.145Z,11.90
2023-03-24T17:19:19.248Z,11.80
2023-03-24T17:22:07.004Z,11.90
2023-03-24T17:24:36.131Z,11.90
2023-03-24T17:27:10.770Z,11.90
2023-03-24T17:29:37.627Z,11.90
2023-03-24T17:32:04.463Z,11.90
2023-03-24T17:34:31.841Z,12.00
2023-03-24T17:36:58.607Z,11.90
2023-03-24T17:39:25.527Z,11.90
2023-03-24T17:41:52.404Z,11.80
2023-03-24T17:44:19.332Z,11.60
2023-03-24T17:46:46.279Z,11.80
2023-03-24T17:49:13.146Z,11.70
2023-03-24T17:51:40.003Z,11.80
2023-03-24T17:54:06.981Z,11.70
2023-03-24T17:56:33.880Z,11.60
2023-03-24T17:59:02.230Z,11.70
2023-03-24T18:01:29.973Z,11.70
2023-03-24T18:03:57.740Z,11.70
2023-03-24T18:06:24.859Z,11.70
2023-03-24T18:08:52.137Z,11.60
2023-03-24T18:11:19.601Z,11.60
2023-03-24T18:13:46.558Z,11.70
2023-03-24T18:16:21.498Z,11.60
2023-03-24T18:18:50.618Z,11.60
2023-03-24T18:21:17.860Z,11.70
2023-03-24T18:23:46.535Z,11.70
2023-03-24T18:26:13.694Z,11.50
2023-03-24T18:28:42.082Z,11.50
2023-03-24T18:31:12.816Z,11.50
2023-03-24T18:33:42.929Z,11.40
2023-03-24T18:36:10.590Z,11.40
2023-03-24T18:38:37.718Z,11.40
2023-03-24T18:41:07.414Z,11.40
2023-03-24T18:43:37.756Z,11.40
2023-03-24T18:46:05.712Z,11.40
2023-03-24T18:48:32.645Z,11.40
2023-03-24T18:50:59.445Z,11.50
2023-03-24T18:53:26.349Z,11.40
2023-03-24T18:55:53.187Z,11.20
2023-03-24T18:58:20.322Z,11.10
2023-03-24T19:00:53.715Z,11.00
2023-03-24T19:03:24.841Z,11.00
2023-03-24T19:05:54.734Z,11.10
2023-03-24T19:08:22.060Z,11.00
2023-03-24T19:10:49.329Z,11.10
2023-03-24T19:13:17.223Z,10.90
2023-03-24T19:15:48.436Z,10.90
2023-03-24T19:18:15.900Z,10.90
2023-03-24T19:20:43.033Z,10.90
2023-03-24T19:23:10.017Z,10.90
2023-03-24T19:25:36.957Z,10.90
2023-03-24T19:28:03.915Z,10.80
2023-03-24T19:30:31.190Z,10.90
2023-03-24T19:32:58.222Z,10.90
2023-03-24T19:35:26.140Z,10.90
2023-03-24T19:37:53.575Z,10.70
2023-03-24T19:40:20.524Z,10.80
2023-03-24T19:42:47.555Z,10.80
2023-03-24T19:45:17.129Z,10.80
2023-03-24T19:47:46.058Z,10.80
2023-03-24T19:50:16.740Z,10.80
2023-03-24T19:52:46.074Z,10.90
2023-03-24T19:55:13.400Z,10.90
2023-03-24T19:57:40.740Z,10.90
2023-03-24T20:00:10.240Z,10.90
2023-03-24T20:02:38.314Z,11.00
2023-03-24T20:05:06.847Z,10.90
2023-03-24T20:07:34.467Z,10.80
2023-03-24T20:10:01.428Z,10.70
2023-03-24T20:12:28.323Z,10.70
2023-03-24T20:14:55.686Z,10.70
2023-03-24T20:17:26.474Z,10.90
2023-03-24T20:19:54.220Z,10.80
2023-03-24T20:22:22.054Z,10.90
2023-03-24T20:24:49.352Z,10.90
2023-03-24T20:27:17.160Z,10.60
2023-03-24T20:29:45.780Z,10.70
2023-03-24T20:32:13.112Z,10.80
2023-03-24T20:34:40.009Z,10.70
2023-03-24T20:37:08.071Z,10.70
2023-03-24T20:39:35.038Z,10.60
2023-03-24T20:42:01.948Z,10.60
2023-03-24T20:44:29.150Z,10.60
2023-03-24T20:46:57.234Z,10.50
2023-03-24T20:49:25.743Z,10.50
2023-03-24T20:51:53.407Z,10.50
2023-03-24T20:54:21.295Z,10.50
2023-03-24T20:56:49.780Z,10.50
2023-03-24T20:59:17.171Z,10.50
2023-03-24T21:01:44.042Z,10.50
2023-03-24T21:04:10.894Z,10.50
2023-03-24T21:06:38.278Z,10.40
2023-03-24T21:09:05.919Z,10.30
2023-03-24T21:11:33.803Z,10.20
2023-03-24T21:14:02.528Z,10.20
2023-03-24T21:16:33.716Z,10.20
2023-03-24T21:19:03.745Z,10.20
2023-03-24T21:21:32.145Z,10.10
2023-03-24T21:24:00.502Z,10.10
2023-03-24T21:26:27.936Z,10.10
2023-03-24T21:28:54.918Z,10.10
2023-03-24T21:31:27.469Z,10.00
2023-03-24T21:33:56.455Z,10.10
2023-03-24T21:36:25.446Z,10.00
2023-03-24T21:38:54.044Z,9.90
2023-03-24T21:41:22.904Z,9.90
2023-03-24T21:43:54.229Z,9.90
2023-03-24T21:46:27.869Z,9.80
2023-03-24T21:48:59.106Z,9.80
2023-03-24T21:51:36.471Z,9.80
2023-03-24T21:54:06.489Z,9.80
2023-03-24T21:56:34.715Z,9.80
2023-03-24T21:59:01.652Z,9.80
2023-03-24T22:01:29.074Z,9.70
2023-03-24T22:03:58.805Z,9.70
2023-03-24T22:06:29.052Z,9.70
2023-03-24T22:08:58.443Z,9.70
2023-03-24T22:11:25.851Z,9.50
2023-03-24T22:13:53.067Z,9.60
2023-03-24T22:16:19.916Z,9.50
2023-03-24T22:18:47.454Z,9.50
2023-03-24T22:21:14.908Z,9.60
2023-03-24T22:23:42.930Z,9.40
2023-03-24T22:26:14.247Z,9.40
2023-03-24T22:28:42.669Z,9.20
2023-03-24T22:31:16.516Z,9.30
2023-03-24T22:33:44.098Z,9.30
2023-03-24T22:36:11.864Z,9.30
2023-03-24T22:38:38.840Z,9.30
2023-03-24T22:41:09.336Z,9.20
2023-03-24T22:43:36.656Z,9.30
2023-03-24T22:46:04.148Z,9.30
2023-03-24T22:48:31.365Z,9.40
2023-03-24T22:50:58.606Z,9.40
2023-03-24T22:53:25.642Z,9.40
2023-03-24T22:55:52.807Z,9.40
2023-03-24T22:58:20.396Z,9.40
2023-03-24T23:00:50.880Z,9.50
2023-03-24T23:03:17.733Z,9.60
2023-03-24T23:05:46.442Z,9.70
2023-03-24T23:08:15.262Z,9.70
2023-03-24T23:10:44.540Z,9.70
2023-03-24T23:13:11.919Z,9.60
2023-03-24T23:15:42.548Z,9.60
2023-03-24T23:18:10.373Z,9.70
2023-03-24T23:20:37.639Z,9.80
2023-03-24T23:23:06.553Z,9.70
2023-03-24T23:25:40.161Z,9.60
2023-03-24T23:28:06.996Z,9.70
2023-03-24T23:30:33.833Z,9.70
2023-03-24T23:33:01.994Z,9.80
2023-03-24T23:35:29.013Z,9.70
2023-03-24T23:37:55.795Z,9.70
2023-03-24T23:40:23.638Z,9.60
2023-03-24T23:42:50.694Z,9.60
2023-03-24T23:45:20.371Z,9.50
2023-03-24T23:47:50.529Z,9.50
2023-03-24T23:50:19.097Z,9.50
2023-03-24T23:52:46.256Z,9.50
2023-03-24T23:55:15.908Z,9.40
2023-03-24T23:57:43.454Z,9.30
